Decoded Metar for YCDU ( in ) (IATA:) | Meteo·Mobile Aviation Weather
aviador You're here:

YCDU Decoded Metar

in
Report Time2019-07-16 22:00:00
UTC Time2019-07-16 22:45:38
Flight Rules mvfr MVFR
Wind350° at 04 kt
W.Decomp.*RWY 35: 4.0 kt HW 0 kt LCW
RWY 29: 2.0 kt HW 3.5 kt RCW
Visibility9999 m
Phenomena:N/A
Clouds:Overcast 020 Hf
Expected CloudBase > 400 ft AGL from Temp-Dew spread
Ceiling2,000 ft
Temp08°C
Dew Point07°C (93% RH)
AAT5.8°C
QNH1027 hPa
Raw Report
METAR YCDU 162200Z AUTO 35004KT 9999 // OVC020 08/07 Q1027=

Extra information for YCDU:More info

Social comments